ケアンズ の空港の天気 - METARとTAF

ケアンズ国際空港 ( YBCS / CNS ) - オーストラリア クイーンズランド州ケアンズ
飛行場実況気象(Metar)
観測時間05/28 20:30 AEST (05/28 10:30 UTC)
風向・風速西 1m/s
視程10km以上
天気現象
なし
気温19℃
湿度88%
気圧1013hPa
METARYBCS 281030Z AUTO 27001KT 9999 // NCD 19/17 Q1013
過去の天気等 Google飛行場航空写真 Wunderground天気予報

過去48時間のMETAR

飛行場予報(TAF)
発表時間: 5/28 18:01 AEST (5/28 08:01 UTC)
予報対象時間: 28日19時 AEST ~ 29日16時 AEST
風向・風速南 3m/s
視程10km以上
なし
29日10時 AEST から
風向・風速南東 3m/s
視程10km以上
少しの雲 雲底高度 1070m
29日12時 AEST から
風向・風速北北東 4m/s
視程10km以上
少しの雲 雲底高度 1220m
TAF YBCS 280801Z 2809/2906 18005KT CAVOK
FM290000 13006KT 9999 FEW035
FM290200 03008KT 9999 FEW040